sensor_id;sensor_type;location;lat;lon;timestamp;temperature;humidity
48206;DHT22;33995;48.202;16.260;2022-07-05T00:01:36;19.50;99.90
48206;DHT22;33995;48.202;16.260;2022-07-05T00:04:15;19.40;99.90
48206;DHT22;33995;48.202;16.260;2022-07-05T00:06:43;19.40;99.90
48206;DHT22;33995;48.202;16.260;2022-07-05T00:09:33;19.40;99.90
48206;DHT22;33995;48.202;16.260;2022-07-05T00:12:16;19.40;99.90
48206;DHT22;33995;48.202;16.260;2022-07-05T00:14:49;19.30;99.90
48206;DHT22;33995;48.202;16.260;2022-07-05T00:17:16;19.30;99.90
48206;DHT22;33995;48.202;16.260;2022-07-05T00:19:50;19.20;99.90
48206;DHT22;33995;48.202;16.260;2022-07-05T00:22:32;19.10;99.90
48206;DHT22;33995;48.202;16.260;2022-07-05T00:25:04;19.00;99.90
48206;DHT22;33995;48.202;16.260;2022-07-05T00:27:47;19.10;99.90
48206;DHT22;33995;48.202;16.260;2022-07-05T00:30:21;19.10;99.90
48206;DHT22;33995;48.202;16.260;2022-07-05T00:32:52;19.00;99.90
48206;DHT22;33995;48.202;16.260;2022-07-05T00:35:36;19.00;99.90
48206;DHT22;33995;48.202;16.260;2022-07-05T00:38:12;18.90;99.90
48206;DHT22;33995;48.202;16.260;2022-07-05T00:40:44;18.90;99.90
48206;DHT22;33995;48.202;16.260;2022-07-05T00:43:20;18.90;99.90
48206;DHT22;33995;48.202;16.260;2022-07-05T00:45:49;18.90;99.90
48206;DHT22;33995;48.202;16.260;2022-07-05T00:48:19;19.00;99.90
48206;DHT22;33995;48.202;16.260;2022-07-05T00:50:50;18.90;99.90
48206;DHT22;33995;48.202;16.260;2022-07-05T00:53:18;18.90;99.90
48206;DHT22;33995;48.202;16.260;2022-07-05T00:55:50;18.90;99.90
48206;DHT22;33995;48.202;16.260;2022-07-05T00:58:19;18.80;99.90
48206;DHT22;33995;48.202;16.260;2022-07-05T01:00:51;18.80;99.90
48206;DHT22;33995;48.202;16.260;2022-07-05T01:03:20;18.90;99.90
48206;DHT22;33995;48.202;16.260;2022-07-05T01:05:50;18.90;99.90
48206;DHT22;33995;48.202;16.260;2022-07-05T01:08:18;18.90;99.90
48206;DHT22;33995;48.202;16.260;2022-07-05T01:10:49;18.80;99.90
48206;DHT22;33995;48.202;16.260;2022-07-05T01:13:21;18.80;99.90
48206;DHT22;33995;48.202;16.260;2022-07-05T01:15:51;18.80;99.90
48206;DHT22;33995;48.202;16.260;2022-07-05T01:18:21;18.80;99.90
48206;DHT22;33995;48.202;16.260;2022-07-05T01:20:50;18.80;99.90
48206;DHT22;33995;48.202;16.260;2022-07-05T01:23:22;18.80;99.90
48206;DHT22;33995;48.202;16.260;2022-07-05T01:25:52;18.80;99.90
48206;DHT22;33995;48.202;16.260;2022-07-05T01:28:21;18.70;99.90
48206;DHT22;33995;48.202;16.260;2022-07-05T01:30:53;18.60;99.90
48206;DHT22;33995;48.202;16.260;2022-07-05T01:33:29;18.60;99.90
48206;DHT22;33995;48.202;16.260;2022-07-05T01:36:12;18.70;99.90
48206;DHT22;33995;48.202;16.260;2022-07-05T01:38:42;18.60;99.90
48206;DHT22;33995;48.202;16.260;2022-07-05T01:41:11;18.60;99.90
48206;DHT22;33995;48.202;16.260;2022-07-05T01:43:39;18.60;99.90
48206;DHT22;33995;48.202;16.260;2022-07-05T01:46:09;18.50;99.90
48206;DHT22;33995;48.202;16.260;2022-07-05T01:48:39;18.60;99.90
48206;DHT22;33995;48.202;16.260;2022-07-05T01:51:54;18.60;99.90
48206;DHT22;33995;48.202;16.260;2022-07-05T01:54:22;18.60;99.90
48206;DHT22;33995;48.202;16.260;2022-07-05T01:56:51;18.60;99.90
48206;DHT22;33995;48.202;16.260;2022-07-05T01:59:20;18.60;99.90
48206;DHT22;33995;48.202;16.260;2022-07-05T02:01:51;18.60;99.90
48206;DHT22;33995;48.202;16.260;2022-07-05T02:04:23;18.60;99.90
48206;DHT22;33995;48.202;16.260;2022-07-05T02:06:54;18.50;99.90
48206;DHT22;33995;48.202;16.260;2022-07-05T02:09:26;18.50;99.90
48206;DHT22;33995;48.202;16.260;2022-07-05T02:11:57;18.50;99.90
48206;DHT22;33995;48.202;16.260;2022-07-05T02:14:31;18.50;99.90
48206;DHT22;33995;48.202;16.260;2022-07-05T02:17:23;18.50;99.90
48206;DHT22;33995;48.202;16.260;2022-07-05T02:19:56;18.50;99.90
48206;DHT22;33995;48.202;16.260;2022-07-05T02:22:27;18.50;99.90
48206;DHT22;33995;48.202;16.260;2022-07-05T02:24:56;18.50;99.90
48206;DHT22;33995;48.202;16.260;2022-07-05T02:27:27;18.50;99.90
48206;DHT22;33995;48.202;16.260;2022-07-05T02:29:57;18.50;99.90
48206;DHT22;33995;48.202;16.260;2022-07-05T02:32:35;18.50;99.90
48206;DHT22;33995;48.202;16.260;2022-07-05T02:35:10;18.50;99.90
48206;DHT22;33995;48.202;16.260;2022-07-05T02:37:45;18.60;99.90
48206;DHT22;33995;48.202;16.260;2022-07-05T02:40:13;18.50;99.90
48206;DHT22;33995;48.202;16.260;2022-07-05T02:42:49;18.50;99.90
48206;DHT22;33995;48.202;16.260;2022-07-05T02:45:20;18.60;99.90
48206;DHT22;33995;48.202;16.260;2022-07-05T02:47:57;18.60;99.90
48206;DHT22;33995;48.202;16.260;2022-07-05T02:50:31;18.60;99.90
48206;DHT22;33995;48.202;16.260;2022-07-05T02:53:11;18.60;99.90
48206;DHT22;33995;48.202;16.260;2022-07-05T02:55:41;18.60;99.90
48206;DHT22;33995;48.202;16.260;2022-07-05T02:58:12;18.60;99.90
48206;DHT22;33995;48.202;16.260;2022-07-05T03:00:45;18.60;99.90
48206;DHT22;33995;48.202;16.260;2022-07-05T03:03:21;18.60;99.90
48206;DHT22;33995;48.202;16.260;2022-07-05T03:05:50;18.60;99.90
48206;DHT22;33995;48.202;16.260;2022-07-05T03:08:29;18.70;99.90
48206;DHT22;33995;48.202;16.260;2022-07-05T03:11:02;18.70;99.90
48206;DHT22;33995;48.202;16.260;2022-07-05T03:13:35;18.70;99.90
48206;DHT22;33995;48.202;16.260;2022-07-05T03:16:12;18.80;99.90
48206;DHT22;33995;48.202;16.260;2022-07-05T03:18:40;18.90;99.90
48206;DHT22;33995;48.202;16.260;2022-07-05T03:21:11;18.90;99.90
48206;DHT22;33995;48.202;16.260;2022-07-05T03:23:42;18.90;99.90
48206;DHT22;33995;48.202;16.260;2022-07-05T03:26:14;19.00;99.90
48206;DHT22;33995;48.202;16.260;2022-07-05T03:28:43;19.00;99.90
48206;DHT22;33995;48.202;16.260;2022-07-05T03:31:19;19.00;99.90
48206;DHT22;33995;48.202;16.260;2022-07-05T03:33:51;19.00;99.90
48206;DHT22;33995;48.202;16.260;2022-07-05T03:36:20;19.00;99.90
48206;DHT22;33995;48.202;16.260;2022-07-05T03:38:50;19.10;99.90
48206;DHT22;33995;48.202;16.260;2022-07-05T03:41:21;19.10;99.90
48206;DHT22;33995;48.202;16.260;2022-07-05T03:43:51;19.20;99.90
48206;DHT22;33995;48.202;16.260;2022-07-05T03:46:24;19.20;99.90
48206;DHT22;33995;48.202;16.260;2022-07-05T03:48:54;19.20;99.90
48206;DHT22;33995;48.202;16.260;2022-07-05T03:51:41;19.30;99.90
48206;DHT22;33995;48.202;16.260;2022-07-05T03:54:11;19.30;99.90
48206;DHT22;33995;48.202;16.260;2022-07-05T03:56:42;19.40;99.90
48206;DHT22;33995;48.202;16.260;2022-07-05T03:59:13;19.40;99.90
48206;DHT22;33995;48.202;16.260;2022-07-05T04:01:44;19.40;99.90
48206;DHT22;33995;48.202;16.260;2022-07-05T04:04:27;19.50;99.90
48206;DHT22;33995;48.202;16.260;2022-07-05T04:07:04;19.40;99.90
48206;DHT22;33995;48.202;16.260;2022-07-05T04:09:38;19.50;99.90
48206;DHT22;33995;48.202;16.260;2022-07-05T04:12:13;19.50;99.90
48206;DHT22;33995;48.202;16.260;2022-07-05T04:14:42;19.60;99.90
48206;DHT22;33995;48.202;16.260;2022-07-05T04:17:10;19.60;99.90
48206;DHT22;33995;48.202;16.260;2022-07-05T04:19:41;19.60;99.90
48206;DHT22;33995;48.202;16.260;2022-07-05T04:22:24;19.60;99.90
48206;DHT22;33995;48.202;16.260;2022-07-05T04:24:55;19.60;99.90
48206;DHT22;33995;48.202;16.260;2022-07-05T04:27:53;19.60;99.90
48206;DHT22;33995;48.202;16.260;2022-07-05T04:30:25;19.60;99.90
48206;DHT22;33995;48.202;16.260;2022-07-05T04:33:00;19.70;99.90
48206;DHT22;33995;48.202;16.260;2022-07-05T04:35:28;19.70;99.90
48206;DHT22;33995;48.202;16.260;2022-07-05T04:38:01;19.70;99.90
48206;DHT22;33995;48.202;16.260;2022-07-05T04:40:34;19.70;99.90
48206;DHT22;33995;48.202;16.260;2022-07-05T04:43:05;19.80;99.90
48206;DHT22;33995;48.202;16.260;2022-07-05T04:45:35;19.80;99.90
48206;DHT22;33995;48.202;16.260;2022-07-05T04:48:06;19.70;99.90
48206;DHT22;33995;48.202;16.260;2022-07-05T04:50:41;19.70;99.90
48206;DHT22;33995;48.202;16.260;2022-07-05T04:53:10;19.70;99.90
48206;DHT22;33995;48.202;16.260;2022-07-05T04:55:42;19.70;99.90
48206;DHT22;33995;48.202;16.260;2022-07-05T04:58:09;19.70;99.90
48206;DHT22;33995;48.202;16.260;2022-07-05T05:00:40;19.80;99.90
48206;DHT22;33995;48.202;16.260;2022-07-05T05:03:10;19.70;99.90
48206;DHT22;33995;48.202;16.260;2022-07-05T05:05:38;19.80;99.90
48206;DHT22;33995;48.202;16.260;2022-07-05T05:08:10;19.80;99.90
48206;DHT22;33995;48.202;16.260;2022-07-05T05:10:40;19.80;99.90
48206;DHT22;33995;48.202;16.260;2022-07-05T05:13:25;19.80;99.90
48206;DHT22;33995;48.202;16.260;2022-07-05T05:15:54;19.80;99.90
48206;DHT22;33995;48.202;16.260;2022-07-05T05:18:27;19.80;99.90
48206;DHT22;33995;48.202;16.260;2022-07-05T05:20:59;19.80;99.90
48206;DHT22;33995;48.202;16.260;2022-07-05T05:23:33;19.90;99.90
48206;DHT22;33995;48.202;16.260;2022-07-05T05:26:06;19.90;99.90
48206;DHT22;33995;48.202;16.260;2022-07-05T05:28:37;19.90;99.90
48206;DHT22;33995;48.202;16.260;2022-07-05T05:31:17;19.90;99.90
48206;DHT22;33995;48.202;16.260;2022-07-05T05:33:49;19.80;99.90
48206;DHT22;33995;48.202;16.260;2022-07-05T05:36:31;19.90;99.90
48206;DHT22;33995;48.202;16.260;2022-07-05T05:39:03;19.90;99.90
48206;DHT22;33995;48.202;16.260;2022-07-05T05:41:47;19.80;99.90
48206;DHT22;33995;48.202;16.260;2022-07-05T05:44:18;19.90;99.90
48206;DHT22;33995;48.202;16.260;2022-07-05T05:47:01;19.90;99.90
48206;DHT22;33995;48.202;16.260;2022-07-05T05:49:37;19.80;99.90
48206;DHT22;33995;48.202;16.260;2022-07-05T05:52:10;19.90;99.90
48206;DHT22;33995;48.202;16.260;2022-07-05T05:54:53;19.90;99.90
48206;DHT22;33995;48.202;16.260;2022-07-05T05:57:21;19.90;99.90
48206;DHT22;33995;48.202;16.260;2022-07-05T05:59:52;19.90;99.90
48206;DHT22;33995;48.202;16.260;2022-07-05T06:02:25;20.00;99.90
48206;DHT22;33995;48.202;16.260;2022-07-05T06:04:56;20.00;99.90
48206;DHT22;33995;48.202;16.260;2022-07-05T06:07:24;20.00;99.90
48206;DHT22;33995;48.202;16.260;2022-07-05T06:09:53;20.00;99.90
48206;DHT22;33995;48.202;16.260;2022-07-05T06:12:20;20.00;99.90
48206;DHT22;33995;48.202;16.260;2022-07-05T06:14:52;20.00;99.90
48206;DHT22;33995;48.202;16.260;2022-07-05T06:17:22;20.10;99.90
48206;DHT22;33995;48.202;16.260;2022-07-05T06:19:58;20.00;99.90
48206;DHT22;33995;48.202;16.260;2022-07-05T06:22:32;20.10;99.90
48206;DHT22;33995;48.202;16.260;2022-07-05T06:25:04;20.10;99.90
48206;DHT22;33995;48.202;16.260;2022-07-05T06:27:55;20.10;99.90
48206;DHT22;33995;48.202;16.260;2022-07-05T06:30:28;20.10;99.90
48206;DHT22;33995;48.202;16.260;2022-07-05T06:33:12;20.20;99.90
48206;DHT22;33995;48.202;16.260;2022-07-05T06:35:41;20.20;99.90
48206;DHT22;33995;48.202;16.260;2022-07-05T06:38:12;20.20;99.90
48206;DHT22;33995;48.202;16.260;2022-07-05T06:40:43;20.20;99.90
48206;DHT22;33995;48.202;16.260;2022-07-05T06:43:14;20.20;99.90
48206;DHT22;33995;48.202;16.260;2022-07-05T06:46:03;20.30;99.90
48206;DHT22;33995;48.202;16.260;2022-07-05T06:48:36;20.30;99.90
48206;DHT22;33995;48.202;16.260;2022-07-05T06:51:06;20.30;99.90
48206;DHT22;33995;48.202;16.260;2022-07-05T06:53:50;20.30;99.90
48206;DHT22;33995;48.202;16.260;2022-07-05T06:56:41;20.30;99.90
48206;DHT22;33995;48.202;16.260;2022-07-05T06:59:31;20.30;99.90
48206;DHT22;33995;48.202;16.260;2022-07-05T07:02:24;20.40;99.90
48206;DHT22;33995;48.202;16.260;2022-07-05T07:04:56;20.40;99.90
48206;DHT22;33995;48.202;16.260;2022-07-05T07:07:38;20.40;99.90
48206;DHT22;33995;48.202;16.260;2022-07-05T07:10:26;20.40;99.90
48206;DHT22;33995;48.202;16.260;2022-07-05T07:12:58;20.50;99.90
48206;DHT22;33995;48.202;16.260;2022-07-05T07:15:30;20.50;99.90
48206;DHT22;33995;48.202;16.260;2022-07-05T07:18:01;20.50;99.90
48206;DHT22;33995;48.202;16.260;2022-07-05T07:20:33;20.60;99.90
48206;DHT22;33995;48.202;16.260;2022-07-05T07:23:17;20.60;99.90
48206;DHT22;33995;48.202;16.260;2022-07-05T07:26:00;20.60;99.90
48206;DHT22;33995;48.202;16.260;2022-07-05T07:28:30;20.60;99.90
48206;DHT22;33995;48.202;16.260;2022-07-05T07:31:00;20.70;99.90
48206;DHT22;33995;48.202;16.260;2022-07-05T07:33:28;20.70;99.90
48206;DHT22;33995;48.202;16.260;2022-07-05T07:36:13;20.70;99.90
48206;DHT22;33995;48.202;16.260;2022-07-05T07:38:44;20.80;99.90
48206;DHT22;33995;48.202;16.260;2022-07-05T07:41:10;20.80;99.90
48206;DHT22;33995;48.202;16.260;2022-07-05T07:43:41;20.80;99.90
48206;DHT22;33995;48.202;16.260;2022-07-05T07:46:10;20.90;99.90
48206;DHT22;33995;48.202;16.260;2022-07-05T07:48:46;20.90;99.90
48206;DHT22;33995;48.202;16.260;2022-07-05T07:51:14;21.00;99.90
48206;DHT22;33995;48.202;16.260;2022-07-05T07:53:55;21.00;99.90
48206;DHT22;33995;48.202;16.260;2022-07-05T07:56:29;21.10;99.90
48206;DHT22;33995;48.202;16.260;2022-07-05T07:59:01;21.10;99.90
48206;DHT22;33995;48.202;16.260;2022-07-05T08:01:30;21.10;99.90
48206;DHT22;33995;48.202;16.260;2022-07-05T08:04:14;21.10;99.90
48206;DHT22;33995;48.202;16.260;2022-07-05T08:06:47;21.00;99.90
48206;DHT22;33995;48.202;16.260;2022-07-05T08:09:21;21.00;99.90
48206;DHT22;33995;48.202;16.260;2022-07-05T08:11:56;21.00;99.90
48206;DHT22;33995;48.202;16.260;2022-07-05T08:14:24;21.00;99.90
48206;DHT22;33995;48.202;16.260;2022-07-05T08:16:55;21.00;99.90
48206;DHT22;33995;48.202;16.260;2022-07-05T08:19:25;21.00;99.90
48206;DHT22;33995;48.202;16.260;2022-07-05T08:22:17;21.00;99.90
48206;DHT22;33995;48.202;16.260;2022-07-05T08:24:51;21.00;99.90
48206;DHT22;33995;48.202;16.260;2022-07-05T08:27:30;20.90;99.90
48206;DHT22;33995;48.202;16.260;2022-07-05T08:30:08;20.90;99.90
48206;DHT22;33995;48.202;16.260;2022-07-05T08:32:53;20.80;99.90
48206;DHT22;33995;48.202;16.260;2022-07-05T08:35:23;20.80;99.90
48206;DHT22;33995;48.202;16.260;2022-07-05T08:37:54;20.70;99.90
48206;DHT22;33995;48.202;16.260;2022-07-05T08:40:25;20.60;99.90
48206;DHT22;33995;48.202;16.260;2022-07-05T08:42:57;20.60;99.90
48206;DHT22;33995;48.202;16.260;2022-07-05T08:45:27;20.60;99.90
48206;DHT22;33995;48.202;16.260;2022-07-05T08:47:58;20.60;99.90
48206;DHT22;33995;48.202;16.260;2022-07-05T08:50:29;20.60;99.90
48206;DHT22;33995;48.202;16.260;2022-07-05T08:53:00;20.60;99.90
48206;DHT22;33995;48.202;16.260;2022-07-05T08:55:28;20.70;99.90
48206;DHT22;33995;48.202;16.260;2022-07-05T08:58:01;20.60;99.90
48206;DHT22;33995;48.202;16.260;2022-07-05T09:00:31;20.60;99.90
48206;DHT22;33995;48.202;16.260;2022-07-05T09:03:10;20.50;99.90
48206;DHT22;33995;48.202;16.260;2022-07-05T09:05:47;20.50;99.90
48206;DHT22;33995;48.202;16.260;2022-07-05T09:08:18;20.60;99.90
48206;DHT22;33995;48.202;16.260;2022-07-05T09:11:04;20.60;99.90
48206;DHT22;33995;48.202;16.260;2022-07-05T09:13:45;20.50;99.90
48206;DHT22;33995;48.202;16.260;2022-07-05T09:16:39;20.30;99.90
48206;DHT22;33995;48.202;16.260;2022-07-05T09:19:14;20.40;99.90
48206;DHT22;33995;48.202;16.260;2022-07-05T09:21:43;20.40;99.90
48206;DHT22;33995;48.202;16.260;2022-07-05T09:24:13;20.40;99.90
48206;DHT22;33995;48.202;16.260;2022-07-05T09:26:46;20.30;99.90
48206;DHT22;33995;48.202;16.260;2022-07-05T09:29:19;20.30;99.90
48206;DHT22;33995;48.202;16.260;2022-07-05T09:32:08;20.30;99.90
48206;DHT22;33995;48.202;16.260;2022-07-05T09:34:50;20.20;99.90
48206;DHT22;33995;48.202;16.260;2022-07-05T09:37:20;20.20;99.90
48206;DHT22;33995;48.202;16.260;2022-07-05T09:39:49;20.20;99.90
48206;DHT22;33995;48.202;16.260;2022-07-05T09:42:24;20.20;99.90
48206;DHT22;33995;48.202;16.260;2022-07-05T09:45:02;20.10;99.90
48206;DHT22;33995;48.202;16.260;2022-07-05T09:47:30;20.20;99.90
48206;DHT22;33995;48.202;16.260;2022-07-05T09:50:01;20.10;99.90
48206;DHT22;33995;48.202;16.260;2022-07-05T09:52:42;20.10;99.90
48206;DHT22;33995;48.202;16.260;2022-07-05T09:55:16;20.10;99.90
48206;DHT22;33995;48.202;16.260;2022-07-05T09:57:59;20.00;99.90
48206;DHT22;33995;48.202;16.260;2022-07-05T10:00:27;20.10;99.90
48206;DHT22;33995;48.202;16.260;2022-07-05T10:03:02;20.00;99.90
48206;DHT22;33995;48.202;16.260;2022-07-05T10:05:33;19.90;99.90
48206;DHT22;33995;48.202;16.260;2022-07-05T10:08:04;19.90;99.90
48206;DHT22;33995;48.202;16.260;2022-07-05T10:10:32;19.80;99.90
48206;DHT22;33995;48.202;16.260;2022-07-05T10:13:04;19.80;99.90
48206;DHT22;33995;48.202;16.260;2022-07-05T10:15:36;19.80;99.90
48206;DHT22;33995;48.202;16.260;2022-07-05T10:18:12;19.70;99.90
48206;DHT22;33995;48.202;16.260;2022-07-05T10:20:45;19.70;99.90
48206;DHT22;33995;48.202;16.260;2022-07-05T10:23:30;19.50;99.90
48206;DHT22;33995;48.202;16.260;2022-07-05T10:25:59;19.50;99.90
48206;DHT22;33995;48.202;16.260;2022-07-05T10:28:32;19.50;99.90
48206;DHT22;33995;48.202;16.260;2022-07-05T10:31:19;19.40;99.90
48206;DHT22;33995;48.202;16.260;2022-07-05T10:33:50;19.40;99.90
48206;DHT22;33995;48.202;16.260;2022-07-05T10:36:21;19.40;99.90
48206;DHT22;33995;48.202;16.260;2022-07-05T10:38:55;19.40;99.90
48206;DHT22;33995;48.202;16.260;2022-07-05T10:41:39;19.30;99.90
48206;DHT22;33995;48.202;16.260;2022-07-05T10:44:26;19.40;99.90
48206;DHT22;33995;48.202;16.260;2022-07-05T10:47:13;19.40;99.90
48206;DHT22;33995;48.202;16.260;2022-07-05T10:49:43;19.40;99.90
48206;DHT22;33995;48.202;16.260;2022-07-05T10:52:25;19.50;99.90
48206;DHT22;33995;48.202;16.260;2022-07-05T10:55:25;19.50;99.90
48206;DHT22;33995;48.202;16.260;2022-07-05T11:01:45;19.50;99.90
48206;DHT22;33995;48.202;16.260;2022-07-05T11:04:24;19.50;99.90
48206;DHT22;33995;48.202;16.260;2022-07-05T11:06:54;19.50;99.90
48206;DHT22;33995;48.202;16.260;2022-07-05T11:09:28;19.60;99.90
48206;DHT22;33995;48.202;16.260;2022-07-05T11:12:05;19.60;99.90
48206;DHT22;33995;48.202;16.260;2022-07-05T11:15:04;19.60;99.90
48206;DHT22;33995;48.202;16.260;2022-07-05T11:17:36;19.60;99.90
48206;DHT22;33995;48.202;16.260;2022-07-05T11:20:31;19.60;99.90
48206;DHT22;33995;48.202;16.260;2022-07-05T11:23:12;19.60;99.90
48206;DHT22;33995;48.202;16.260;2022-07-05T11:25:44;19.50;99.90
48206;DHT22;33995;48.202;16.260;2022-07-05T11:28:19;19.50;99.90
48206;DHT22;33995;48.202;16.260;2022-07-05T11:30:59;19.50;99.90
48206;DHT22;33995;48.202;16.260;2022-07-05T11:33:42;19.50;99.90
48206;DHT22;33995;48.202;16.260;2022-07-05T11:36:27;19.40;99.90
48206;DHT22;33995;48.202;16.260;2022-07-05T11:39:15;19.40;99.90
48206;DHT22;33995;48.202;16.260;2022-07-05T11:41:51;19.50;99.90
48206;DHT22;33995;48.202;16.260;2022-07-05T11:44:23;19.50;99.90
48206;DHT22;33995;48.202;16.260;2022-07-05T11:47:17;19.50;99.90
48206;DHT22;33995;48.202;16.260;2022-07-05T11:49:56;19.50;99.90
48206;DHT22;33995;48.202;16.260;2022-07-05T11:52:40;19.60;99.90
48206;DHT22;33995;48.202;16.260;2022-07-05T11:55:10;19.60;99.90
48206;DHT22;33995;48.202;16.260;2022-07-05T11:57:50;19.60;99.90
48206;DHT22;33995;48.202;16.260;2022-07-05T12:00:37;19.60;99.90
48206;DHT22;33995;48.202;16.260;2022-07-05T12:03:20;19.60;99.90
48206;DHT22;33995;48.202;16.260;2022-07-05T12:05:51;19.60;99.90
48206;DHT22;33995;48.202;16.260;2022-07-05T12:08:24;19.60;99.90
48206;DHT22;33995;48.202;16.260;2022-07-05T12:10:55;19.70;99.90
48206;DHT22;33995;48.202;16.260;2022-07-05T12:13:48;19.60;99.90
48206;DHT22;33995;48.202;16.260;2022-07-05T12:16:21;19.70;99.90
48206;DHT22;33995;48.202;16.260;2022-07-05T12:18:56;19.70;99.90
48206;DHT22;33995;48.202;16.260;2022-07-05T12:21:29;19.70;99.90
48206;DHT22;33995;48.202;16.260;2022-07-05T12:24:16;19.80;99.90
48206;DHT22;33995;48.202;16.260;2022-07-05T12:26:56;19.80;99.90
48206;DHT22;33995;48.202;16.260;2022-07-05T12:29:27;19.90;99.90
48206;DHT22;33995;48.202;16.260;2022-07-05T12:32:04;19.90;99.90
48206;DHT22;33995;48.202;16.260;2022-07-05T12:34:47;19.80;99.90
48206;DHT22;33995;48.202;16.260;2022-07-05T12:37:26;19.80;99.90
48206;DHT22;33995;48.202;16.260;2022-07-05T12:40:11;19.80;99.90
48206;DHT22;33995;48.202;16.260;2022-07-05T12:42:45;19.80;99.90
48206;DHT22;33995;48.202;16.260;2022-07-05T12:45:19;19.80;99.90
48206;DHT22;33995;48.202;16.260;2022-07-05T12:48:04;19.80;99.90
48206;DHT22;33995;48.202;16.260;2022-07-05T12:50:52;19.90;99.90
48206;DHT22;33995;48.202;16.260;2022-07-05T12:53:50;20.10;99.90
48206;DHT22;33995;48.202;16.260;2022-07-05T12:56:38;20.40;99.90
48206;DHT22;33995;48.202;16.260;2022-07-05T13:00:07;20.80;99.90
48206;DHT22;33995;48.202;16.260;2022-07-05T13:02:46;21.00;99.90
48206;DHT22;33995;48.202;16.260;2022-07-05T13:05:23;21.10;99.90
48206;DHT22;33995;48.202;16.260;2022-07-05T13:07:54;21.10;99.90
48206;DHT22;33995;48.202;16.260;2022-07-05T13:10:28;21.10;99.90
48206;DHT22;33995;48.202;16.260;2022-07-05T13:13:09;21.20;99.90
48206;DHT22;33995;48.202;16.260;2022-07-05T13:15:41;21.20;99.90
48206;DHT22;33995;48.202;16.260;2022-07-05T13:18:26;21.20;99.90
48206;DHT22;33995;48.202;16.260;2022-07-05T13:20:55;21.20;99.90
48206;DHT22;33995;48.202;16.260;2022-07-05T13:23:24;21.20;99.90
48206;DHT22;33995;48.202;16.260;2022-07-05T13:25:57;21.10;99.90
48206;DHT22;33995;48.202;16.260;2022-07-05T13:28:31;21.20;99.90
48206;DHT22;33995;48.202;16.260;2022-07-05T13:31:13;21.20;99.90
48206;DHT22;33995;48.202;16.260;2022-07-05T13:33:45;21.20;99.90
48206;DHT22;33995;48.202;16.260;2022-07-05T13:36:16;21.20;99.90
48206;DHT22;33995;48.202;16.260;2022-07-05T13:38:46;21.30;99.90
48206;DHT22;33995;48.202;16.260;2022-07-05T13:41:28;21.20;99.90
48206;DHT22;33995;48.202;16.260;2022-07-05T13:43:58;21.20;99.90
48206;DHT22;33995;48.202;16.260;2022-07-05T13:46:26;21.10;99.90
48206;DHT22;33995;48.202;16.260;2022-07-05T13:48:55;21.10;99.90
48206;DHT22;33995;48.202;16.260;2022-07-05T13:51:24;21.10;99.90
48206;DHT22;33995;48.202;16.260;2022-07-05T13:54:00;21.10;99.90
48206;DHT22;33995;48.202;16.260;2022-07-05T13:56:30;21.10;99.90
48206;DHT22;33995;48.202;16.260;2022-07-05T13:59:16;21.20;99.90
48206;DHT22;33995;48.202;16.260;2022-07-05T14:01:47;21.20;99.90
48206;DHT22;33995;48.202;16.260;2022-07-05T14:04:26;21.30;99.90
48206;DHT22;33995;48.202;16.260;2022-07-05T14:07:07;21.30;99.90
48206;DHT22;33995;48.202;16.260;2022-07-05T14:09:37;21.30;99.90
48206;DHT22;33995;48.202;16.260;2022-07-05T14:12:11;21.30;99.90
48206;DHT22;33995;48.202;16.260;2022-07-05T14:14:40;21.30;99.90
48206;DHT22;33995;48.202;16.260;2022-07-05T14:17:09;21.30;99.90
48206;DHT22;33995;48.202;16.260;2022-07-05T14:19:52;21.30;99.90
48206;DHT22;33995;48.202;16.260;2022-07-05T14:22:20;21.30;99.90
48206;DHT22;33995;48.202;16.260;2022-07-05T14:24:53;21.30;99.90
48206;DHT22;33995;48.202;16.260;2022-07-05T14:27:36;21.30;99.90
48206;DHT22;33995;48.202;16.260;2022-07-05T14:30:10;21.30;99.90
48206;DHT22;33995;48.202;16.260;2022-07-05T14:32:41;21.30;99.90
48206;DHT22;33995;48.202;16.260;2022-07-05T14:35:17;21.30;99.90
48206;DHT22;33995;48.202;16.260;2022-07-05T14:37:47;21.30;99.90
48206;DHT22;33995;48.202;16.260;2022-07-05T14:40:16;21.30;99.90
48206;DHT22;33995;48.202;16.260;2022-07-05T14:42:54;21.40;99.90
48206;DHT22;33995;48.202;16.260;2022-07-05T14:45:22;21.40;99.90
48206;DHT22;33995;48.202;16.260;2022-07-05T14:48:04;21.50;99.90
48206;DHT22;33995;48.202;16.260;2022-07-05T14:50:33;21.60;99.90
48206;DHT22;33995;48.202;16.260;2022-07-05T14:53:05;21.70;99.90
48206;DHT22;33995;48.202;16.260;2022-07-05T14:55:46;21.80;99.90
48206;DHT22;33995;48.202;16.260;2022-07-05T14:58:28;22.10;99.90
48206;DHT22;33995;48.202;16.260;2022-07-05T15:01:03;22.30;99.90
48206;DHT22;33995;48.202;16.260;2022-07-05T15:03:44;22.40;99.90
48206;DHT22;33995;48.202;16.260;2022-07-05T15:06:12;22.40;99.90
48206;DHT22;33995;48.202;16.260;2022-07-05T15:08:42;22.50;99.90
48206;DHT22;33995;48.202;16.260;2022-07-05T15:11:14;22.40;99.90
48206;DHT22;33995;48.202;16.260;2022-07-05T15:13:45;22.40;99.90
48206;DHT22;33995;48.202;16.260;2022-07-05T15:16:17;22.20;99.90
48206;DHT22;33995;48.202;16.260;2022-07-05T15:18:44;22.10;99.90
48206;DHT22;33995;48.202;16.260;2022-07-05T15:21:14;22.10;99.90
48206;DHT22;33995;48.202;16.260;2022-07-05T15:23:54;22.10;99.90
48206;DHT22;33995;48.202;16.260;2022-07-05T15:26:39;22.10;99.90
48206;DHT22;33995;48.202;16.260;2022-07-05T15:29:10;22.10;99.90
48206;DHT22;33995;48.202;16.260;2022-07-05T15:31:40;22.20;99.90
48206;DHT22;33995;48.202;16.260;2022-07-05T15:34:12;22.30;99.90
48206;DHT22;33995;48.202;16.260;2022-07-05T15:36:41;22.30;99.90
48206;DHT22;33995;48.202;16.260;2022-07-05T15:39:10;22.30;99.90
48206;DHT22;33995;48.202;16.260;2022-07-05T15:41:39;22.40;99.90
48206;DHT22;33995;48.202;16.260;2022-07-05T15:44:08;22.50;99.90
48206;DHT22;33995;48.202;16.260;2022-07-05T15:46:37;22.60;99.90
48206;DHT22;33995;48.202;16.260;2022-07-05T15:49:25;22.70;99.90
48206;DHT22;33995;48.202;16.260;2022-07-05T15:51:58;22.80;99.90
48206;DHT22;33995;48.202;16.260;2022-07-05T15:54:28;22.90;99.90
48206;DHT22;33995;48.202;16.260;2022-07-05T15:56:58;23.00;99.90
48206;DHT22;33995;48.202;16.260;2022-07-05T15:59:34;23.10;99.90
48206;DHT22;33995;48.202;16.260;2022-07-05T16:02:08;23.10;99.90
48206;DHT22;33995;48.202;16.260;2022-07-05T16:04:42;23.10;99.90
48206;DHT22;33995;48.202;16.260;2022-07-05T16:07:26;23.10;99.90